Terminal Aerodrome Forecast
Issued by NWS Greer, SC

Home | Current Version | Previous Version | Text Only | Print | Product List | Glossary On
Versions: 1 2 3 4 5 6 7 8 9 10 11 12 13 14 15 16 17
000
FTUS42 KGSP 211909 AAD
TAFGSP
TAF AMD
KGSP 211909Z 2119/2218 07005KT P6SM SCT023 OVC035
      TEMPO 2119/2122 BKN023 OVC035
     FM212200 06005KT P6SM OVC025
     FM220300 05006KT P6SM -RA OVC015
     FM220600 05008KT P6SM -RA OVC009
     FM220900 04009KT 5SM -RADZ BR OVC006
     FM221500 04008KT P6SM OVC007=

USA.gov is the U.S. government's official web portal to all federal, state and local government web resources and services.